Louisville, Nebraska
Current Conditions -  °F | °C
As of 8:15 AM on Tuesday 27 Jan 2015 (Local Time) from KPMV Reporting Station
Clear Clear  
Wind Chill: -2°   Ceiling: Unl
Heat Index:   Visibility: 10mi
Dew Point: -1°   Wind: 5mph
Humidity: 90%   Direction: 70°ENE
Pressure: 30.12"   Gusts: NA
Location:  41°N, 96.16°W
Report Text: KPMV 271415Z AUTO 07004KT 10SM CLR 00/M01 A3012 RMK AO2 T00021012
Loading
Personal Weather Stations






























Interactive Weather Map New forecast layout! Learn more

10-Day Weather Forecast

Advertisements
Track Severe Weather on mobile